Athens, OH (45701)

9:03 PM EDT on August 27, 2014 (GMT -0400)
OHDOT 31-Athens County Garage | Change Station
CLOSE
Current Station
Personal Weather Station
Location: Athens, OH
Elevation: 656 ft
Nearby Weather Stations

Elev 656 ft 39.33 °N, 82.13 °W | Updated 32 minutes ago

Partly Cloudy
Partly Cloudy
76 °F
Feels Like 77 °F
N
0
Wind Variable Wind from ESE
Gusts 1.0 mph

Today
High -- | Low -- °F
--% Chance of Precip.
Yesterday
High -- | Low -- °F
Precip. -- in
6:52 AM 8:06 PM
Waxing Crescent, 5% visible
Pressure 30.02 in
Visibility 10.0 miles
Clouds Scattered Clouds 4000 ft
Scattered Clouds 4600 ft
Scattered Clouds 6000 ft
Heat Index 77 °F
Dew Point 72 °F
Humidity 85%
Rainfall -999.00 in
Snow Depth Not available.
UV 0 out of 12
Pollen 10.60 out of 12
Air Quality Not available.
Flu Activity Not available.
METAR KUNI 280055Z AUTO 00000KT 10SM VCTS SCT040 SCT046 SCT060 23/20 A3002 RMK AO2 LTG DSNT SE T02320198

More Conditions Fewer Conditions

Pressure 30.02 in
Visibility 10.0 miles
Clouds Scattered Clouds 4000 ft
Scattered Clouds 4600 ft
Scattered Clouds 6000 ft
Heat Index 77 °F
Dew Point 72 °F
Humidity 85%
Rainfall -999.00 in
Snow Depth Not available.
UV 0 out of 12
Pollen 10.60 out of 12
Air Quality Not available.
Flu Activity Not available.
METAR KUNI 280055Z AUTO 00000KT 10SM VCTS SCT040 SCT046 SCT060 23/20 A3002 RMK AO2 LTG DSNT SE T02320198

More Conditions Fewer Conditions

10-Day Weather Forecast

Almanac

Astronomy

Aug. 27, 2014 Rise Set
Actual Time 6:52 AM EDT 8:06 PM EDT
Civil Twilight 6:24 AM EDT 8:34 PM EDT
Nautical Twilight 5:51 AM EDT 9:07 PM EDT
Astronomical Twilight 5:16 AM EDT 9:42 PM EDT
Moon 8:46 AM EDT (8/27) 8:59 PM EDT (8/27)
Length of Visible Light 14h 10m
Length of Day
13h 14m
Tomorrow will be 2m 25s shorter.
Waxing Crescent, 5% of the Moon is Illuminated
Today
Waxing Crescent
Sep 2
First Quarter
Sep 8
Full
Sep 15
Last Quarter
Sep 24
New

Today's Extremes

State Highs State Lows

Community

WunderPhotos

Upload Photos

1,747,843 photos uploaded!

Nearby

Snow Depth

Station Depth Elevation
No new snow has been reported.

Earthquake Activity

City Distance Mag. Time & Date
No recent earthquake activity has been reported nearby.
Minimum magnitude displayed is 2.5.

Coastal Water Temperatures

Place Temperature
No Stations Reporting

Nearby Weather Stations